Utah State University
, Logan
Last Weather Update:04/16/2012 11:00:00 AM
Date
ETo
ETc
Rain
Irrigation
Req
Temp
Max
Temp
Min
Temp
Avg
Avg RH
Avg Wind
Avg Solar
inches
inches
incehs
inches
F
F
F
%
%
watts/m2
03/01/2012 0.04" 0.00" 0.15" -0.12" 32.9° 13.3° 23.1° 76.0% 4.5 MPH 118.6w/m2
03/02/2012 0.03" 0.00" 0.13" -0.10" 32.0° 14.1° 24.1° 77.7% 0.7 MPH 114.8w/m2
03/03/2012 0.03" 0.00" 0.00" 0.00" 36.2° 25.7° 31.6° 60.5% 1.7 MPH 52.5w/m2
03/04/2012 0.09" 0.00" 0.00" 0.00" 48.8° 33.5° 40.0° 58.6% 2.6 MPH 188.0w/m2
03/05/2012 0.11" 0.00" 0.00" 0.00" 59.5° 28.3° 44.6° 45.2% 4.4 MPH 199.9w/m2
03/06/2012 0.04" 0.00" 0.06" -0.05" 54.4° 24.2° 40.8° 55.3% 2.3 MPH 49.8w/m2
03/07/2012 0.07" 0.00" 0.00" 0.00" 38.7° 23.5° 28.9° 61.8% 2.1 MPH 194.1w/m2
03/08/2012 0.08" 0.00" 0.00" 0.00" 45.7° 21.5° 32.5° 54.2% 4.1 MPH 210.5w/m2
03/09/2012 0.10" 0.00" 0.00" 0.00" 53.7° 28.2° 38.9° 44.4% 3.8 MPH 213.1w/m2
03/10/2012 0.11" 0.00" 0.00" 0.00" 57.1° 31.1° 42.0° 40.7% 4.5 MPH 214.5w/m2
03/11/2012 0.12" 0.00" 0.00" 0.00" 59.0° 34.1° 45.9° 33.5% 5.5 MPH 214.0w/m2
03/12/2012 0.12" 0.00" 0.00" 0.00" 61.5° 37.2° 49.1° 41.8% 3.0 MPH 206.8w/m2
03/13/2012 0.12" 0.00" 0.00" 0.00" 59.3° 47.1° 55.5° 23.2% 5.3 MPH 102.8w/m2
03/14/2012 0.08" 0.00" 0.00" 0.00" 59.2° 47.0° 52.8° 36.3% 2.9 MPH 81.4w/m2
03/15/2012 0.12" 0.00" 0.00" 0.00" 64.4° 41.5° 52.0° 46.0% 4.4 MPH 175.6w/m2
03/16/2012 0.08" 0.00" 0.00" 0.00" 62.7° 48.2° 54.3° 39.9% 3.8 MPH 90.2w/m2
03/17/2012 0.12" 0.00" 0.01" -0.01" 62.8° 47.2° 54.6° 41.3% 5.9 MPH 84.6w/m2
03/18/2012 0.06" 0.00" 0.29" -0.23" 49.1° 30.8° 40.5° 70.2% 3.6 MPH 99.4w/m2
03/19/2012 0.06" 0.00" 0.22" -0.18" 39.5° 27.4° 32.2° 72.1% 1.2 MPH 160.5w/m2
03/20/2012 0.09" 0.00" 0.00" 0.00" 42.3° 17.7° 32.1° 53.1% 3.2 MPH 237.0w/m2
03/21/2012 0.13" 0.00" 0.00" 0.00" 59.2° 36.2° 46.3° 46.5% 3.3 MPH 237.8w/m2
03/22/2012 0.14" 0.00" 0.00" 0.00" 69.0° 38.1° 51.7° 40.8% 5.7 MPH 230.6w/m2
03/23/2012 0.16" 0.00" 0.00" 0.00" 68.4° 45.8° 56.6° 33.3% 6.1 MPH 207.3w/m2
03/24/2012 0.12" 0.00" 0.00" 0.00" 69.1° 41.2° 53.8° 41.2% 3.8 MPH 185.5w/m2
03/25/2012 0.12" 0.00" 0.00" 0.00" 67.5° 46.7° 56.3° 34.0% 5.9 MPH 132.5w/m2
03/26/2012 0.06" 0.00" 0.14" -0.11" 52.3° 34.0° 43.1° 60.5% 5.1 MPH 77.7w/m2
03/27/2012 0.12" 0.00" 0.00" 0.00" 60.2° 33.8° 45.2° 57.6% 2.3 MPH 229.1w/m2
03/28/2012 0.11" 0.00" 0.08" -0.06" 60.9° 38.8° 49.0° 43.5% 5.6 MPH 141.9w/m2
03/29/2012 0.08" 0.00" 0.14" -0.11" 55.3° 34.6° 43.6° 72.8% 2.1 MPH 170.4w/m2
03/30/2012 0.11" 0.00" 0.00" 0.00" 65.2° 44.7° 53.9° 51.9% 2.4 MPH 184.5w/m2
03/31/2012 0.22" 0.00" 0.00" 0.00" 75.3° 47.6° 61.7° 33.8% 8.0 MPH 261.7w/m2
Totals: 3.05" 0.00" 1.22" -0.98" 75.3° 13.3° 44.4° 49.9% 3.9 MPH 163.4w/m2